createdAt,value
2022-11-02T00:00:48.979Z,8.25
2022-11-02T00:03:16.809Z,7.25
2022-11-02T00:05:44.729Z,9.70
2022-11-02T00:08:15.600Z,9.35
2022-11-02T00:10:43.542Z,7.80
2022-11-02T00:13:12.405Z,7.85
2022-11-02T00:15:43.409Z,7.93
2022-11-02T00:18:13.709Z,8.88
2022-11-02T00:20:44.128Z,8.80
2022-11-02T00:23:13.433Z,9.38
2022-11-02T00:25:46.214Z,8.43
2022-11-02T00:28:14.686Z,8.20
2022-11-02T00:30:43.297Z,7.70
2022-11-02T00:33:11.538Z,8.30
2022-11-02T00:35:40.116Z,7.50
2022-11-02T00:38:08.245Z,7.93
2022-11-02T00:40:36.253Z,7.90
2022-11-02T00:43:04.266Z,9.10
2022-11-02T00:45:32.794Z,9.75
2022-11-02T00:48:00.966Z,8.50
2022-11-02T00:50:30.856Z,7.50
2022-11-02T00:52:58.991Z,7.85
2022-11-02T00:55:26.991Z,7.68
2022-11-02T00:57:59.524Z,8.27
2022-11-02T01:00:27.509Z,8.20
2022-11-02T01:02:55.413Z,8.82
2022-11-02T01:05:23.431Z,7.35
2022-11-02T01:07:51.289Z,7.20
2022-11-02T01:10:19.369Z,7.97
2022-11-02T01:12:48.035Z,7.85
2022-11-02T01:15:15.973Z,7.97
2022-11-02T01:17:43.876Z,7.95
2022-11-02T01:20:12.270Z,8.77
2022-11-02T01:22:40.324Z,8.95
2022-11-02T01:25:09.001Z,8.88
2022-11-02T01:27:36.926Z,8.60
2022-11-02T01:30:06.688Z,8.73
2022-11-02T01:32:34.614Z,9.05
2022-11-02T01:35:03.836Z,9.95
2022-11-02T01:37:32.049Z,9.00
2022-11-02T01:39:59.930Z,9.05
2022-11-02T01:42:29.397Z,9.02
2022-11-02T01:44:57.950Z,9.13
2022-11-02T01:47:29.788Z,10.18
2022-11-02T01:50:10.280Z,8.57
2022-11-02T01:52:40.135Z,8.98
2022-11-02T01:55:20.439Z,9.00
2022-11-02T01:58:01.224Z,9.02
2022-11-02T02:00:29.250Z,9.00
2022-11-02T02:03:05.240Z,8.60
2022-11-02T02:05:36.975Z,8.00
2022-11-02T02:10:33.535Z,7.30
2022-11-02T02:13:08.014Z,7.78
2022-11-02T02:16:09.252Z,8.40
2022-11-02T02:18:47.580Z,7.22
2022-11-02T02:21:28.197Z,7.10
2022-11-02T02:24:17.789Z,7.45
2022-11-02T02:26:57.601Z,7.57
2022-11-02T02:29:34.716Z,7.15
2022-11-02T02:32:52.558Z,7.25
2022-11-02T02:35:38.571Z,6.80
2022-11-02T02:38:14.283Z,6.40
2022-11-02T02:40:51.522Z,6.30
2022-11-02T02:43:29.201Z,6.30
2022-11-02T02:46:18.236Z,6.35
2022-11-02T02:48:51.027Z,6.50
2022-11-02T02:51:33.984Z,6.10
2022-11-02T02:54:12.754Z,6.55
2022-11-02T02:59:29.293Z,10.13
2022-11-02T03:02:00.056Z,9.15
2022-11-02T03:04:28.215Z,9.48
2022-11-02T03:06:59.169Z,7.57
2022-11-02T03:09:56.474Z,8.80
2022-11-02T03:12:57.013Z,8.27
2022-11-02T03:15:51.105Z,6.88
2022-11-02T03:18:47.774Z,5.53
2022-11-02T03:21:41.802Z,7.13
2022-11-02T03:24:28.428Z,7.10
2022-11-02T03:27:24.590Z,7.45
2022-11-02T03:30:08.854Z,6.68
2022-11-02T03:32:43.473Z,6.72
2022-11-02T03:35:35.096Z,5.88
2022-11-02T03:38:09.481Z,6.15
2022-11-02T03:40:46.336Z,5.97
2022-11-02T03:43:16.484Z,7.03
2022-11-02T03:45:49.729Z,5.72
2022-11-02T03:48:19.894Z,6.00
2022-11-02T03:50:53.169Z,5.93
2022-11-02T03:53:54.141Z,6.20
2022-11-02T03:56:32.971Z,6.25
2022-11-02T03:59:01.182Z,5.90
2022-11-02T04:01:30.760Z,6.20
2022-11-02T04:03:58.844Z,5.97
2022-11-02T04:06:28.015Z,5.63
2022-11-02T04:08:55.926Z,5.45
2022-11-02T04:11:43.050Z,6.43
2022-11-02T04:14:33.053Z,5.45
2022-11-02T04:19:59.862Z,5.13
2022-11-02T04:22:46.828Z,5.25
2022-11-02T04:25:19.693Z,5.93
2022-11-02T04:28:09.033Z,4.93
2022-11-02T04:30:45.637Z,6.28
2022-11-02T04:33:32.584Z,6.03
2022-11-02T04:36:08.495Z,6.00
2022-11-02T04:38:43.377Z,5.20
2022-11-02T04:41:40.469Z,6.07
2022-11-02T04:44:29.096Z,4.82
2022-11-02T04:47:07.031Z,4.93
2022-11-02T04:49:36.663Z,5.00
2022-11-02T04:52:07.080Z,4.57
2022-11-02T04:54:37.436Z,4.43
2022-11-02T04:57:07.500Z,5.00
2022-11-02T04:59:35.429Z,4.80
2022-11-02T05:02:04.385Z,4.03
2022-11-02T05:04:33.384Z,4.28
2022-11-02T05:07:02.013Z,4.15
2022-11-02T05:09:37.337Z,5.20
2022-11-02T05:12:10.190Z,5.32
2022-11-02T05:14:38.922Z,4.32
2022-11-02T05:17:07.725Z,4.63
2022-11-02T05:19:37.257Z,5.43
2022-11-02T05:22:06.533Z,4.35
2022-11-02T05:24:35.327Z,5.05
2022-11-02T05:27:03.381Z,4.75
2022-11-02T05:29:34.425Z,4.80
2022-11-02T05:32:02.507Z,4.75
2022-11-02T05:34:30.432Z,5.05
2022-11-02T05:36:58.437Z,4.70
2022-11-02T05:39:26.496Z,4.63
2022-11-02T05:41:55.078Z,5.10
2022-11-02T05:44:23.324Z,5.82
2022-11-02T05:46:51.266Z,5.03
2022-11-02T05:49:19.189Z,4.93
2022-11-02T05:51:47.144Z,4.85
2022-11-02T05:54:14.997Z,5.47
2022-11-02T05:56:42.918Z,4.75
2022-11-02T05:59:11.262Z,5.75
2022-11-02T06:01:40.245Z,4.80
2022-11-02T06:04:08.199Z,6.55
2022-11-02T06:06:36.114Z,4.88
2022-11-02T06:09:07.145Z,4.68
2022-11-02T06:14:04.759Z,3.92
2022-11-02T06:16:32.941Z,4.32
2022-11-02T06:19:00.924Z,5.07
2022-11-02T06:21:28.959Z,5.03
2022-11-02T06:23:56.902Z,5.47
2022-11-02T06:26:24.759Z,4.97
2022-11-02T06:28:52.616Z,4.70
2022-11-02T06:31:21.993Z,4.70
2022-11-02T06:33:49.851Z,5.13
2022-11-02T06:36:17.783Z,5.00
2022-11-02T06:38:48.217Z,5.10
2022-11-02T06:41:16.158Z,4.93
2022-11-02T06:43:46.226Z,4.05
2022-11-02T06:46:20.531Z,4.85
2022-11-02T06:48:49.190Z,5.00
2022-11-02T06:51:20.114Z,4.50
2022-11-02T06:53:48.084Z,3.65
2022-11-02T06:56:16.149Z,4.32
2022-11-02T06:59:00.074Z,4.50
2022-11-02T07:01:28.080Z,4.03
2022-11-02T07:03:56.088Z,3.90
2022-11-02T07:06:24.074Z,4.15
2022-11-02T07:08:51.881Z,3.55
2022-11-02T07:11:19.785Z,6.10
2022-11-02T07:13:47.856Z,3.70
2022-11-02T07:16:16.037Z,3.88
2022-11-02T07:18:44.004Z,3.42
2022-11-02T07:21:14.832Z,2.60
2022-11-02T07:23:42.756Z,2.83
2022-11-02T07:26:10.594Z,2.65
2022-11-02T07:28:39.304Z,4.13
2022-11-02T07:31:07.220Z,11.98
2022-11-02T07:33:35.139Z,3.60
2022-11-02T07:36:05.097Z,3.10
2022-11-02T07:38:33.051Z,2.60
2022-11-02T07:41:01.017Z,2.72
2022-11-02T07:43:29.901Z,2.25
2022-11-02T07:46:17.201Z,2.45
2022-11-02T07:48:48.237Z,2.63
2022-11-02T07:51:16.204Z,2.33
2022-11-02T07:53:45.610Z,2.88
2022-11-02T07:56:16.633Z,2.50
2022-11-02T07:58:48.998Z,2.58
2022-11-02T08:01:17.112Z,2.47
2022-11-02T08:03:44.982Z,2.58
2022-11-02T08:06:12.958Z,5.40
2022-11-02T08:08:40.902Z,8.48
2022-11-02T08:11:10.664Z,2.63
2022-11-02T08:13:39.243Z,2.88
2022-11-02T08:16:07.425Z,2.03
2022-11-02T08:18:35.413Z,1.83
2022-11-02T08:21:03.479Z,2.20
2022-11-02T08:23:31.413Z,1.83
2022-11-02T08:26:01.366Z,1.75
2022-11-02T08:28:33.202Z,1.65
2022-11-02T08:31:01.180Z,1.85
2022-11-02T08:33:29.509Z,1.90
2022-11-02T08:36:02.893Z,2.15
2022-11-02T08:38:30.815Z,2.20
2022-11-02T08:40:58.822Z,1.70
2022-11-02T08:43:26.782Z,1.70
2022-11-02T08:46:16.068Z,1.60
2022-11-02T08:48:44.752Z,2.05
2022-11-02T08:51:12.836Z,1.73
2022-11-02T08:53:40.846Z,1.85
2022-11-02T08:56:09.357Z,1.63
2022-11-02T08:58:43.315Z,2.13
2022-11-02T09:01:15.716Z,1.70
2022-11-02T09:03:43.635Z,2.58
2022-11-02T09:06:11.544Z,1.70
2022-11-02T09:08:39.510Z,1.98
2022-11-02T09:11:07.520Z,2.28
2022-11-02T09:13:35.460Z,1.92
2022-11-02T09:16:03.796Z,2.10
2022-11-02T09:18:32.365Z,1.50
2022-11-02T09:21:04.703Z,4.70
2022-11-02T09:23:33.022Z,2.70
2022-11-02T09:26:01.611Z,2.58
2022-11-02T09:28:29.525Z,1.58
2022-11-02T09:30:57.464Z,1.27
2022-11-02T09:33:25.429Z,2.17
2022-11-02T09:35:53.386Z,1.77
2022-11-02T09:38:21.300Z,1.42
2022-11-02T09:41:08.213Z,1.58
2022-11-02T09:43:54.237Z,1.60
2022-11-02T09:46:34.768Z,1.40
2022-11-02T09:49:07.124Z,1.47
2022-11-02T09:51:39.337Z,1.70
2022-11-02T09:54:19.313Z,1.48
2022-11-02T09:56:48.917Z,1.73
2022-11-02T09:59:19.273Z,1.55
2022-11-02T10:01:58.924Z,1.52
2022-11-02T10:05:04.283Z,1.60
2022-11-02T10:08:06.274Z,1.45
2022-11-02T10:11:08.359Z,1.52
2022-11-02T10:13:45.118Z,2.45
2022-11-02T10:16:25.138Z,1.50
2022-11-02T10:18:55.698Z,1.55
2022-11-02T10:21:35.738Z,1.98
2022-11-02T10:24:19.296Z,1.70
2022-11-02T10:26:47.898Z,1.88
2022-11-02T10:29:37.278Z,1.20
2022-11-02T10:32:05.473Z,1.80
2022-11-02T10:34:34.857Z,1.95
2022-11-02T10:37:39.424Z,1.77
2022-11-02T10:40:29.454Z,2.08
2022-11-02T10:43:07.172Z,1.70
2022-11-02T10:46:03.376Z,1.92
2022-11-02T10:48:55.547Z,1.33
2022-11-02T10:51:30.875Z,1.48
2022-11-02T10:53:59.704Z,1.50
2022-11-02T10:56:33.234Z,1.55
2022-11-02T10:59:01.726Z,2.53
2022-11-02T11:01:31.335Z,1.35
2022-11-02T11:04:08.302Z,1.67
2022-11-02T11:06:42.256Z,1.35
2022-11-02T11:09:25.965Z,1.90
2022-11-02T11:12:17.981Z,1.65
2022-11-02T11:20:39.185Z,1.60
2022-11-02T11:23:19.115Z,1.30
2022-11-02T11:26:02.228Z,1.50
2022-11-02T11:28:55.967Z,1.67
2022-11-02T11:31:24.718Z,1.50
2022-11-02T11:33:56.697Z,1.73
2022-11-02T11:36:36.833Z,1.35
2022-11-02T11:39:08.989Z,1.42
2022-11-02T11:41:41.613Z,1.23
2022-11-02T11:44:15.683Z,1.45
2022-11-02T11:46:48.591Z,1.70
2022-11-02T11:52:41.029Z,1.50
2022-11-02T11:55:24.763Z,1.25
2022-11-02T11:58:19.182Z,1.48
2022-11-02T12:00:47.586Z,2.38
2022-11-02T12:03:17.364Z,1.50
2022-11-02T12:06:15.047Z,1.40
2022-11-02T12:09:10.495Z,1.67
2022-11-02T12:11:47.892Z,2.20
2022-11-02T12:14:52.999Z,1.50
2022-11-02T12:17:24.679Z,1.52
2022-11-02T12:20:15.098Z,1.83
2022-11-02T12:22:56.164Z,1.60
2022-11-02T12:25:27.123Z,1.88
2022-11-02T12:27:57.928Z,1.77
2022-11-02T12:30:49.001Z,1.38
2022-11-02T12:33:32.038Z,3.42
2022-11-02T12:36:14.502Z,1.35
2022-11-02T12:39:03.230Z,1.45
2022-11-02T12:41:55.086Z,1.63
2022-11-02T12:44:47.129Z,1.52
2022-11-02T12:47:18.081Z,1.63
2022-11-02T12:49:55.462Z,1.30
2022-11-02T12:52:35.103Z,1.27
2022-11-02T12:55:08.003Z,0.90
2022-11-02T12:57:40.614Z,1.27
2022-11-02T13:00:20.616Z,1.85
2022-11-02T13:03:07.869Z,1.20
2022-11-02T13:05:40.313Z,1.23
2022-11-02T13:08:22.002Z,1.33
2022-11-02T13:10:54.937Z,1.17
2022-11-02T13:13:36.685Z,0.85
2022-11-02T13:16:06.775Z,1.33
2022-11-02T13:18:45.033Z,1.30
2022-11-02T13:21:14.485Z,1.42
2022-11-02T13:23:51.359Z,1.33
2022-11-02T13:26:27.668Z,1.13
2022-11-02T13:29:05.807Z,1.58
2022-11-02T13:31:41.365Z,1.30
2022-11-02T13:34:23.893Z,1.40
2022-11-02T13:36:51.794Z,1.33
2022-11-02T13:39:30.078Z,1.25
2022-11-02T13:42:34.615Z,1.00
2022-11-02T13:48:27.234Z,1.00
2022-11-02T13:50:58.997Z,1.15
2022-11-02T13:53:33.548Z,1.00
2022-11-02T13:56:10.585Z,0.98
2022-11-02T13:58:47.878Z,1.25
2022-11-02T14:01:23.675Z,1.25
2022-11-02T14:04:01.905Z,1.27
2022-11-02T14:06:33.081Z,1.45
2022-11-02T14:09:03.810Z,1.40
2022-11-02T14:11:40.910Z,1.58
2022-11-02T14:14:11.774Z,1.48
2022-11-02T14:16:51.750Z,1.27
2022-11-02T14:19:20.734Z,1.60
2022-11-02T14:22:00.908Z,1.40
2022-11-02T14:24:35.052Z,1.35
2022-11-02T14:27:06.042Z,1.40
2022-11-02T14:29:47.635Z,1.98
2022-11-02T14:32:18.399Z,1.67
2022-11-02T14:34:52.344Z,1.80
2022-11-02T14:37:57.769Z,1.25
2022-11-02T14:40:43.295Z,1.73
2022-11-02T14:43:35.594Z,1.70
2022-11-02T14:46:17.719Z,1.20
2022-11-02T14:48:54.263Z,1.55
2022-11-02T14:51:31.260Z,1.55
2022-11-02T14:54:17.600Z,1.95
2022-11-02T14:56:57.677Z,1.30
2022-11-02T14:59:48.460Z,1.30
2022-11-02T15:02:28.141Z,1.40
2022-11-02T15:05:02.432Z,1.33
2022-11-02T15:08:00.783Z,1.52
2022-11-02T15:10:31.522Z,1.88
2022-11-02T15:13:21.360Z,1.70
2022-11-02T15:15:51.978Z,1.05
2022-11-02T15:18:34.913Z,1.10
2022-11-02T15:21:23.771Z,1.80
2022-11-02T15:24:17.039Z,1.48
2022-11-02T15:27:02.711Z,1.67
2022-11-02T15:29:44.647Z,1.35
2022-11-02T15:32:23.346Z,1.35
2022-11-02T15:34:54.496Z,1.80
2022-11-02T15:37:29.888Z,1.77
2022-11-02T15:40:03.407Z,1.98
2022-11-02T15:42:55.777Z,1.65
2022-11-02T15:46:06.593Z,1.27
2022-11-02T15:49:06.526Z,1.58
2022-11-02T15:52:03.724Z,1.40
2022-11-02T15:55:12.965Z,1.85
2022-11-02T15:58:08.721Z,1.35
2022-11-02T16:00:36.622Z,1.58
2022-11-02T16:03:07.703Z,2.47
2022-11-02T16:05:44.733Z,1.77
2022-11-02T16:08:26.964Z,1.75
2022-11-02T16:11:06.429Z,1.40
2022-11-02T16:13:55.635Z,1.80
2022-11-02T16:16:34.679Z,1.60
2022-11-02T16:19:03.621Z,1.55
2022-11-02T16:21:31.597Z,1.83
2022-11-02T16:24:00.552Z,3.20
2022-11-02T16:26:30.829Z,2.95
2022-11-02T16:29:03.691Z,1.95
2022-11-02T16:31:34.610Z,2.22
2022-11-02T16:34:19.613Z,1.80
2022-11-02T16:36:48.974Z,1.60
2022-11-02T16:39:35.711Z,1.65
2022-11-02T16:42:08.680Z,2.00
2022-11-02T16:44:37.661Z,1.83
2022-11-02T16:47:08.758Z,1.67
2022-11-02T16:49:56.594Z,2.17
2022-11-02T16:52:34.376Z,2.42
2022-11-02T16:55:03.206Z,1.83
2022-11-02T16:57:35.241Z,2.65
2022-11-02T17:00:13.306Z,2.28
2022-11-02T17:02:44.989Z,3.05
2022-11-02T17:05:23.079Z,3.03
2022-11-02T17:07:58.886Z,3.28
2022-11-02T17:10:29.868Z,2.70
2022-11-02T17:12:58.851Z,3.80
2022-11-02T17:15:29.965Z,4.00
2022-11-02T17:18:10.150Z,3.65
2022-11-02T17:20:39.638Z,3.50
2022-11-02T17:23:45.557Z,3.53
2022-11-02T17:26:36.109Z,3.85
2022-11-02T17:29:26.467Z,3.22
2022-11-02T17:32:00.358Z,4.30
2022-11-02T17:34:28.920Z,4.57
2022-11-02T17:36:57.365Z,4.35
2022-11-02T17:39:27.693Z,3.72
2022-11-02T17:42:15.982Z,3.47
2022-11-02T17:44:46.335Z,3.42
2022-11-02T17:47:16.939Z,3.70
2022-11-02T17:49:44.843Z,4.33
2022-11-02T17:52:17.988Z,3.55
2022-11-02T17:54:45.877Z,3.47
2022-11-02T17:57:15.203Z,3.22
2022-11-02T17:59:43.214Z,2.95
2022-11-02T18:02:16.122Z,2.97
2022-11-02T18:04:44.632Z,3.17
2022-11-02T18:07:13.360Z,3.63
2022-11-02T18:09:41.405Z,3.60
2022-11-02T18:12:15.622Z,3.55
2022-11-02T18:14:43.893Z,3.35
2022-11-02T18:17:12.177Z,3.88
2022-11-02T18:19:40.124Z,2.95
2022-11-02T18:22:08.022Z,3.78
2022-11-02T18:24:35.858Z,3.75
2022-11-02T18:27:03.801Z,4.35
2022-11-02T18:29:31.838Z,5.15
2022-11-02T18:31:59.912Z,4.93
2022-11-02T18:34:30.178Z,3.55
2022-11-02T18:36:58.151Z,3.92
2022-11-02T18:39:27.034Z,3.50
2022-11-02T18:41:55.081Z,3.35
2022-11-02T18:44:23.234Z,3.80
2022-11-02T18:46:51.152Z,4.43
2022-11-02T18:49:19.025Z,3.97
2022-11-02T18:51:46.932Z,4.70
2022-11-02T18:54:16.025Z,6.20
2022-11-02T18:56:43.991Z,5.85
2022-11-02T18:59:11.895Z,5.47
2022-11-02T19:01:40.066Z,5.40
2022-11-02T19:04:10.815Z,4.65
2022-11-02T19:06:59.868Z,4.80
2022-11-02T19:09:30.289Z,4.60
2022-11-02T19:12:06.494Z,4.68
2022-11-02T19:14:36.172Z,5.25
2022-11-02T19:17:05.250Z,6.90
2022-11-02T19:19:33.994Z,5.53
2022-11-02T19:22:03.020Z,5.97
2022-11-02T19:24:31.165Z,6.53
2022-11-02T19:26:59.357Z,6.68
2022-11-02T19:29:27.176Z,6.20
2022-11-02T19:31:55.053Z,8.02
2022-11-02T19:34:27.188Z,9.35
2022-11-02T19:36:55.146Z,8.70
2022-11-02T19:39:24.238Z,7.70
2022-11-02T19:41:57.598Z,7.82
2022-11-02T19:44:25.714Z,6.40
2022-11-02T19:46:53.583Z,7.13
2022-11-02T19:49:21.535Z,7.57
2022-11-02T19:51:49.501Z,6.68
2022-11-02T19:54:17.501Z,6.28
2022-11-02T19:56:45.345Z,6.78
2022-11-02T19:59:13.816Z,6.85
2022-11-02T20:01:43.532Z,6.95
2022-11-02T20:04:11.530Z,7.75
2022-11-02T20:06:41.799Z,7.85
2022-11-02T20:09:18.581Z,7.85
2022-11-02T20:11:50.314Z,8.13
2022-11-02T20:14:18.759Z,9.27
2022-11-02T20:16:58.283Z,9.32
2022-11-02T20:19:32.356Z,9.52
2022-11-02T20:22:00.193Z,10.25
2022-11-02T20:24:28.333Z,11.07
2022-11-02T20:27:02.161Z,10.70
2022-11-02T20:29:30.663Z,9.50
2022-11-02T20:31:58.679Z,8.70
2022-11-02T20:34:27.453Z,8.88
2022-11-02T20:36:58.118Z,9.05
2022-11-02T20:39:28.621Z,8.45
2022-11-02T20:41:56.981Z,8.83
2022-11-02T20:44:28.333Z,7.97
2022-11-02T20:49:48.837Z,7.32
2022-11-02T20:52:12.219Z,8.35
2022-11-02T20:54:40.259Z,8.65
2022-11-02T20:57:08.728Z,9.10
2022-11-02T20:59:36.781Z,7.88
2022-11-02T21:02:04.877Z,8.23
2022-11-02T21:04:32.828Z,8.10
2022-11-02T21:07:00.797Z,8.77
2022-11-02T21:09:29.066Z,9.52
2022-11-02T21:12:16.082Z,8.60
2022-11-02T21:14:43.998Z,8.20
2022-11-02T21:17:11.865Z,9.75
2022-11-02T21:19:39.717Z,9.65
2022-11-02T21:22:07.552Z,9.60
2022-11-02T21:24:35.461Z,8.77
2022-11-02T21:27:03.307Z,9.07
2022-11-02T21:29:31.374Z,10.00
2022-11-02T21:31:59.649Z,9.43
2022-11-02T21:34:27.697Z,9.77
2022-11-02T21:36:55.596Z,9.77
2022-11-02T21:39:25.766Z,8.98
2022-11-02T21:41:53.654Z,8.90
2022-11-02T21:44:26.121Z,9.27
2022-11-02T21:46:55.346Z,8.95
2022-11-02T21:49:23.426Z,8.55
2022-11-02T21:51:51.521Z,8.82
2022-11-02T21:54:19.401Z,8.90
2022-11-02T21:56:49.396Z,10.15
2022-11-02T21:59:17.257Z,8.90
2022-11-02T22:01:45.793Z,9.13
2022-11-02T22:04:22.390Z,8.20
2022-11-02T22:06:51.327Z,8.82
2022-11-02T22:09:19.968Z,9.52
2022-11-02T22:11:47.958Z,9.02
2022-11-02T22:14:15.813Z,10.30
2022-11-02T22:16:45.660Z,11.60
2022-11-02T22:19:15.131Z,10.43
2022-11-02T22:21:45.388Z,10.30
2022-11-02T22:24:13.650Z,10.93
2022-11-02T22:26:41.662Z,9.20
2022-11-02T22:29:10.146Z,9.88
2022-11-02T22:31:40.584Z,9.45
2022-11-02T22:34:10.311Z,9.27
2022-11-02T22:36:39.970Z,8.90
2022-11-02T22:39:09.743Z,9.18
2022-11-02T22:41:40.808Z,9.15
2022-11-02T22:44:14.338Z,9.15
2022-11-02T22:46:52.247Z,10.02
2022-11-02T22:49:23.402Z,8.48
2022-11-02T22:51:51.881Z,7.78
2022-11-02T22:54:21.040Z,9.07
2022-11-02T22:56:50.036Z,9.25
2022-11-02T22:59:18.257Z,7.72
2022-11-02T23:01:46.374Z,10.27
2022-11-02T23:04:14.407Z,10.55
2022-11-02T23:06:42.373Z,10.55
2022-11-02T23:09:12.136Z,10.45
2022-11-02T23:11:40.109Z,10.05
2022-11-02T23:14:15.930Z,9.10
2022-11-02T23:16:48.260Z,9.13
2022-11-02T23:19:27.622Z,9.18
2022-11-02T23:22:30.310Z,9.35
2022-11-02T23:28:04.965Z,8.77
2022-11-02T23:30:53.872Z,7.72
2022-11-02T23:36:14.829Z,8.50
2022-11-02T23:39:03.647Z,8.52
2022-11-02T23:41:33.166Z,8.65
2022-11-02T23:44:14.908Z,7.68
2022-11-02T23:46:44.518Z,6.63
2022-11-02T23:49:13.377Z,7.25
2022-11-02T23:52:00.103Z,7.80
2022-11-02T23:54:46.511Z,7.28
2022-11-02T23:57:14.527Z,6.50
2022-11-02T23:59:42.424Z,7.65
